TimeEST,TemperatureF,Dew PointF,Humidity,Sea Level PressureIn,VisibilityMPH,Wind Direction,Wind SpeedMPH,Gust SpeedMPH,PrecipitationIn,Events,Conditions,WindDirDegrees,DateUTC
12:52 AM,24.1,21.0,88,29.98,8.0,West,8.1,-,N/A,,Scattered Clouds,270,2014-02-10 05:52:00
12:59 AM,24.8,21.2,86,29.98,7.0,West,8.1,-,N/A,,Mostly Cloudy,260,2014-02-10 05:59:00
1:06 AM,24.8,21.2,86,29.97,8.0,West,8.1,-,N/A,,Scattered Clouds,270,2014-02-10 06:06:00
1:52 AM,24.1,21.0,88,29.98,8.0,WSW,8.1,-,N/A,,Clear,250,2014-02-10 06:52:00
2:52 AM,21.9,19.0,89,29.98,8.0,West,5.8,-,N/A,,Clear,260,2014-02-10 07:52:00
3:52 AM,21.9,17.1,82,30.00,10.0,West,6.9,-,N/A,,Clear,260,2014-02-10 08:52:00
4:52 AM,21.0,16.0,81,30.01,10.0,West,3.5,-,N/A,,Clear,280,2014-02-10 09:52:00
5:52 AM,18.0,12.9,81,30.03,10.0,WNW,6.9,-,N/A,,Clear,290,2014-02-10 10:52:00
6:52 AM,19.9,12.9,74,30.08,10.0,WSW,5.8,-,N/A,,Clear,240,2014-02-10 11:52:00
7:52 AM,21.0,12.9,71,30.11,10.0,West,6.9,-,N/A,,Clear,270,2014-02-10 12:52:00
8:52 AM,21.9,12.0,66,30.13,10.0,WNW,8.1,16.1,N/A,,Clear,300,2014-02-10 13:52:00
9:52 AM,24.1,10.9,57,30.13,10.0,NW,11.5,18.4,N/A,,Clear,320,2014-02-10 14:52:00
10:52 AM,26.1,10.9,53,30.12,10.0,NW,15.0,21.9,N/A,,Clear,310,2014-02-10 15:52:00
11:52 AM,27.0,10.0,49,30.11,10.0,NNW,13.8,-,N/A,,Clear,340,2014-02-10 16:52:00
12:52 PM,28.0,10.9,49,30.10,10.0,NNW,12.7,-,N/A,,Partly Cloudy,340,2014-02-10 17:52:00
1:52 PM,28.9,10.0,45,30.09,10.0,NW,9.2,19.6,N/A,,Clear,320,2014-02-10 18:52:00
2:52 PM,28.9,9.0,43,30.10,10.0,NW,11.5,21.9,N/A,,Partly Cloudy,310,2014-02-10 19:52:00
3:52 PM,28.9,7.0,40,30.11,10.0,NW,11.5,-,N/A,,Clear,310,2014-02-10 20:52:00
5:52 PM,26.1,6.1,43,30.17,10.0,NNW,6.9,-,N/A,,Unknown,330,2014-02-10 22:52:00
6:52 PM,24.1,7.0,48,30.19,10.0,NW,3.5,-,N/A,,Clear,320,2014-02-10 23:52:00
7:52 PM,23.0,6.1,48,30.22,10.0,NNW,4.6,-,N/A,,Clear,330,2014-02-11 00:52:00
8:52 PM,21.0,6.1,53,30.23,10.0,NW,4.6,-,N/A,,Clear,320,2014-02-11 01:52:00
9:52 PM,19.9,7.0,57,30.25,10.0,Calm,Calm,-,N/A,,Clear,0,2014-02-11 02:52:00
10:52 PM,18.0,7.0,62,30.26,10.0,Calm,Calm,-,N/A,,Clear,0,2014-02-11 03:52:00
11:52 PM,15.1,7.0,70,30.27,10.0,NW,3.5,-,N/A,,Clear,310,2014-02-11 04:52:00